sensor_id;sensor_type;location;lat;lon;timestamp;P1;durP1;ratioP1;P2;durP2;ratioP2
2884;SDS011;54691;48.262;11.586;2023-06-04T00:00:27;14.47;;;3.50;;
2884;SDS011;54691;48.262;11.586;2023-06-04T00:07:24;11.05;;;3.50;;
2884;SDS011;54691;48.262;11.586;2023-06-04T00:14:21;8.78;;;3.92;;
2884;SDS011;54691;48.262;11.586;2023-06-04T00:21:18;6.90;;;3.42;;
2884;SDS011;54691;48.262;11.586;2023-06-04T00:28:15;7.70;;;3.33;;
2884;SDS011;54691;48.262;11.586;2023-06-04T00:35:12;9.73;;;3.75;;
2884;SDS011;54691;48.262;11.586;2023-06-04T00:42:09;6.37;;;3.20;;
2884;SDS011;54691;48.262;11.586;2023-06-04T00:49:06;8.88;;;3.52;;
2884;SDS011;54691;48.262;11.586;2023-06-04T00:56:03;8.20;;;3.42;;
2884;SDS011;54691;48.262;11.586;2023-06-04T01:03:04;9.45;;;3.25;;
2884;SDS011;54691;48.262;11.586;2023-06-04T01:10:02;9.63;;;3.35;;
2884;SDS011;54691;48.262;11.586;2023-06-04T01:17:04;8.75;;;3.42;;
2884;SDS011;54691;48.262;11.586;2023-06-04T01:24:00;6.75;;;2.90;;
2884;SDS011;54691;48.262;11.586;2023-06-04T01:30:59;9.35;;;3.87;;
2884;SDS011;54691;48.262;11.586;2023-06-04T01:37:57;8.75;;;3.58;;
2884;SDS011;54691;48.262;11.586;2023-06-04T01:44:54;13.68;;;3.40;;
2884;SDS011;54691;48.262;11.586;2023-06-04T01:51:54;8.33;;;3.92;;
2884;SDS011;54691;48.262;11.586;2023-06-04T02:02:24;6.15;;;3.67;;
2884;SDS011;54691;48.262;11.586;2023-06-04T02:09:22;10.88;;;4.25;;
2884;SDS011;54691;48.262;11.586;2023-06-04T02:16:18;8.98;;;4.33;;
2884;SDS011;54691;48.262;11.586;2023-06-04T02:23:19;7.45;;;3.75;;
2884;SDS011;54691;48.262;11.586;2023-06-04T02:30:16;5.97;;;3.98;;
2884;SDS011;54691;48.262;11.586;2023-06-04T02:37:13;8.00;;;3.40;;
2884;SDS011;54691;48.262;11.586;2023-06-04T02:44:11;7.67;;;3.75;;
2884;SDS011;54691;48.262;11.586;2023-06-04T02:51:08;9.30;;;4.12;;
2884;SDS011;54691;48.262;11.586;2023-06-04T02:58:06;8.08;;;4.55;;
2884;SDS011;54691;48.262;11.586;2023-06-04T03:05:04;8.40;;;3.83;;
2884;SDS011;54691;48.262;11.586;2023-06-04T03:12:01;8.50;;;3.52;;
2884;SDS011;54691;48.262;11.586;2023-06-04T03:18:58;7.97;;;3.95;;
2884;SDS011;54691;48.262;11.586;2023-06-04T03:25:55;10.98;;;3.52;;
2884;SDS011;54691;48.262;11.586;2023-06-04T03:32:52;7.83;;;3.65;;
2884;SDS011;54691;48.262;11.586;2023-06-04T03:39:51;12.13;;;3.70;;
2884;SDS011;54691;48.262;11.586;2023-06-04T03:46:48;9.55;;;3.25;;
2884;SDS011;54691;48.262;11.586;2023-06-04T03:53:45;7.42;;;3.58;;
2884;SDS011;54691;48.262;11.586;2023-06-04T04:00:42;7.33;;;3.20;;
2884;SDS011;54691;48.262;11.586;2023-06-04T04:07:39;9.05;;;3.37;;
2884;SDS011;54691;48.262;11.586;2023-06-04T04:14:36;4.80;;;3.12;;
2884;SDS011;54691;48.262;11.586;2023-06-04T04:21:35;8.18;;;2.98;;
2884;SDS011;54691;48.262;11.586;2023-06-04T04:28:33;8.85;;;2.62;;
2884;SDS011;54691;48.262;11.586;2023-06-04T04:39:07;4.50;;;1.90;;
2884;SDS011;54691;48.262;11.586;2023-06-04T04:46:05;4.42;;;2.22;;
2884;SDS011;54691;48.262;11.586;2023-06-04T04:53:02;5.87;;;2.17;;
2884;SDS011;54691;48.262;11.586;2023-06-04T04:59:59;3.70;;;2.17;;
2884;SDS011;54691;48.262;11.586;2023-06-04T05:06:58;5.53;;;2.52;;
2884;SDS011;54691;48.262;11.586;2023-06-04T05:13:55;9.18;;;2.47;;
2884;SDS011;54691;48.262;11.586;2023-06-04T05:20:53;10.93;;;2.35;;
2884;SDS011;54691;48.262;11.586;2023-06-04T05:27:50;5.20;;;2.00;;
2884;SDS011;54691;48.262;11.586;2023-06-04T05:34:48;7.47;;;2.15;;
2884;SDS011;54691;48.262;11.586;2023-06-04T05:41:47;5.50;;;1.95;;
2884;SDS011;54691;48.262;11.586;2023-06-04T05:48:44;17.25;;;3.80;;
2884;SDS011;54691;48.262;11.586;2023-06-04T05:55:41;5.53;;;2.33;;
2884;SDS011;54691;48.262;11.586;2023-06-04T06:02:38;7.92;;;2.20;;
2884;SDS011;54691;48.262;11.586;2023-06-04T06:09:37;14.47;;;2.15;;
2884;SDS011;54691;48.262;11.586;2023-06-04T06:16:34;7.00;;;2.05;;
2884;SDS011;54691;48.262;11.586;2023-06-04T06:23:36;4.15;;;2.12;;
2884;SDS011;54691;48.262;11.586;2023-06-04T06:30:39;6.85;;;2.50;;
2884;SDS011;54691;48.262;11.586;2023-06-04T06:41:06;6.15;;;2.35;;
2884;SDS011;54691;48.262;11.586;2023-06-04T06:48:03;5.05;;;2.17;;
2884;SDS011;54691;48.262;11.586;2023-06-04T06:55:00;6.78;;;2.30;;
2884;SDS011;54691;48.262;11.586;2023-06-04T07:01:57;5.05;;;2.27;;
2884;SDS011;54691;48.262;11.586;2023-06-04T07:08:54;3.62;;;2.12;;
2884;SDS011;54691;48.262;11.586;2023-06-04T07:15:52;3.02;;;1.50;;
2884;SDS011;54691;48.262;11.586;2023-06-04T07:22:49;4.70;;;1.85;;
2884;SDS011;54691;48.262;11.586;2023-06-04T07:29:46;7.12;;;2.20;;
2884;SDS011;54691;48.262;11.586;2023-06-04T07:36:43;2.85;;;1.90;;
2884;SDS011;54691;48.262;11.586;2023-06-04T07:43:40;3.20;;;1.82;;
2884;SDS011;54691;48.262;11.586;2023-06-04T07:50:37;8.15;;;1.98;;
2884;SDS011;54691;48.262;11.586;2023-06-04T07:57:41;3.47;;;2.15;;
2884;SDS011;54691;48.262;11.586;2023-06-04T08:04:38;6.40;;;2.12;;
2884;SDS011;54691;48.262;11.586;2023-06-04T08:11:40;5.95;;;2.17;;
2884;SDS011;54691;48.262;11.586;2023-06-04T08:18:39;8.35;;;1.80;;
2884;SDS011;54691;48.262;11.586;2023-06-04T08:25:38;4.67;;;2.12;;
2884;SDS011;54691;48.262;11.586;2023-06-04T08:32:35;7.35;;;1.77;;
2884;SDS011;54691;48.262;11.586;2023-06-04T08:39:32;3.55;;;1.77;;
2884;SDS011;54691;48.262;11.586;2023-06-04T08:46:29;7.10;;;1.80;;
2884;SDS011;54691;48.262;11.586;2023-06-04T08:53:29;2.87;;;1.27;;
2884;SDS011;54691;48.262;11.586;2023-06-04T09:00:27;5.67;;;2.12;;
2884;SDS011;54691;48.262;11.586;2023-06-04T09:07:24;4.15;;;2.05;;
2884;SDS011;54691;48.262;11.586;2023-06-04T09:14:21;7.80;;;1.62;;
2884;SDS011;54691;48.262;11.586;2023-06-04T09:21:19;4.15;;;1.90;;
2884;SDS011;54691;48.262;11.586;2023-06-04T09:28:17;3.40;;;1.62;;
2884;SDS011;54691;48.262;11.586;2023-06-04T09:35:16;4.72;;;1.87;;
2884;SDS011;54691;48.262;11.586;2023-06-04T09:42:13;2.42;;;1.60;;
2884;SDS011;54691;48.262;11.586;2023-06-04T09:49:10;3.02;;;1.70;;
2884;SDS011;54691;48.262;11.586;2023-06-04T09:56:08;5.65;;;1.40;;
2884;SDS011;54691;48.262;11.586;2023-06-04T10:03:07;4.62;;;1.57;;
2884;SDS011;54691;48.262;11.586;2023-06-04T10:10:08;2.70;;;1.70;;
2884;SDS011;54691;48.262;11.586;2023-06-04T10:20:42;3.67;;;1.92;;
2884;SDS011;54691;48.262;11.586;2023-06-04T10:27:41;2.80;;;1.40;;
2884;SDS011;54691;48.262;11.586;2023-06-04T10:34:38;4.08;;;1.90;;
2884;SDS011;54691;48.262;11.586;2023-06-04T10:41:37;5.53;;;2.22;;
2884;SDS011;54691;48.262;11.586;2023-06-04T10:48:34;9.65;;;2.27;;
2884;SDS011;54691;48.262;11.586;2023-06-04T10:55:42;8.83;;;2.12;;
2884;SDS011;54691;48.262;11.586;2023-06-04T11:02:33;5.70;;;1.90;;
2884;SDS011;54691;48.262;11.586;2023-06-04T11:13:07;4.53;;;2.00;;
2884;SDS011;54691;48.262;11.586;2023-06-04T11:20:15;6.55;;;2.25;;
2884;SDS011;54691;48.262;11.586;2023-06-04T11:27:07;5.95;;;2.20;;
2884;SDS011;54691;48.262;11.586;2023-06-04T11:34:06;4.30;;;2.17;;
2884;SDS011;54691;48.262;11.586;2023-06-04T11:41:03;16.40;;;2.67;;
2884;SDS011;54691;48.262;11.586;2023-06-04T11:51:34;3.42;;;1.95;;
2884;SDS011;54691;48.262;11.586;2023-06-04T11:58:33;3.65;;;2.00;;
2884;SDS011;54691;48.262;11.586;2023-06-04T12:05:32;7.03;;;2.17;;
2884;SDS011;54691;48.262;11.586;2023-06-04T12:12:31;4.58;;;2.20;;
2884;SDS011;54691;48.262;11.586;2023-06-04T12:23:05;4.15;;;1.87;;
2884;SDS011;54691;48.262;11.586;2023-06-04T12:30:05;7.15;;;2.17;;
2884;SDS011;54691;48.262;11.586;2023-06-04T12:37:03;4.67;;;1.82;;
2884;SDS011;54691;48.262;11.586;2023-06-04T12:44:01;5.15;;;2.08;;
2884;SDS011;54691;48.262;11.586;2023-06-04T12:50:58;8.18;;;2.08;;
2884;SDS011;54691;48.262;11.586;2023-06-04T12:57:56;5.92;;;2.15;;
2884;SDS011;54691;48.262;11.586;2023-06-04T13:04:53;6.05;;;2.35;;
2884;SDS011;54691;48.262;11.586;2023-06-04T13:11:51;4.08;;;2.35;;
2884;SDS011;54691;48.262;11.586;2023-06-04T13:18:48;10.75;;;2.35;;
2884;SDS011;54691;48.262;11.586;2023-06-04T13:25:45;6.42;;;2.35;;
2884;SDS011;54691;48.262;11.586;2023-06-04T13:32:43;3.10;;;2.12;;
2884;SDS011;54691;48.262;11.586;2023-06-04T13:39:40;6.87;;;2.12;;
2884;SDS011;54691;48.262;11.586;2023-06-04T13:46:37;4.08;;;2.37;;
2884;SDS011;54691;48.262;11.586;2023-06-04T13:53:34;4.75;;;2.10;;
2884;SDS011;54691;48.262;11.586;2023-06-04T14:00:33;5.83;;;1.95;;
2884;SDS011;54691;48.262;11.586;2023-06-04T14:07:33;5.10;;;2.17;;
2884;SDS011;54691;48.262;11.586;2023-06-04T14:14:30;2.22;;;1.92;;
2884;SDS011;54691;48.262;11.586;2023-06-04T14:21:29;2.83;;;1.95;;
2884;SDS011;54691;48.262;11.586;2023-06-04T14:28:27;4.80;;;2.45;;
2884;SDS011;54691;48.262;11.586;2023-06-04T14:35:24;3.98;;;2.30;;
2884;SDS011;54691;48.262;11.586;2023-06-04T14:42:21;4.12;;;2.47;;
2884;SDS011;54691;48.262;11.586;2023-06-04T14:49:18;7.12;;;2.60;;
2884;SDS011;54691;48.262;11.586;2023-06-04T14:56:18;3.47;;;2.08;;
2884;SDS011;54691;48.262;11.586;2023-06-04T15:03:15;4.25;;;2.15;;
2884;SDS011;54691;48.262;11.586;2023-06-04T15:10:13;3.80;;;2.20;;
2884;SDS011;54691;48.262;11.586;2023-06-04T15:17:10;5.58;;;2.25;;
2884;SDS011;54691;48.262;11.586;2023-06-04T15:24:07;4.45;;;2.40;;
2884;SDS011;54691;48.262;11.586;2023-06-04T15:31:06;8.15;;;2.45;;
2884;SDS011;54691;48.262;11.586;2023-06-04T15:38:03;3.80;;;2.33;;
2884;SDS011;54691;48.262;11.586;2023-06-04T15:45:00;5.97;;;2.90;;
2884;SDS011;54691;48.262;11.586;2023-06-04T15:51:58;3.92;;;2.25;;
2884;SDS011;54691;48.262;11.586;2023-06-04T15:58:55;6.25;;;2.70;;
2884;SDS011;54691;48.262;11.586;2023-06-04T16:05:52;6.85;;;2.80;;
2884;SDS011;54691;48.262;11.586;2023-06-04T16:12:49;3.50;;;2.45;;
2884;SDS011;54691;48.262;11.586;2023-06-04T16:19:46;3.25;;;2.65;;
2884;SDS011;54691;48.262;11.586;2023-06-04T16:26:43;10.20;;;2.80;;
2884;SDS011;54691;48.262;11.586;2023-06-04T16:33:41;5.00;;;2.17;;
2884;SDS011;54691;48.262;11.586;2023-06-04T16:40:38;6.58;;;2.75;;
2884;SDS011;54691;48.262;11.586;2023-06-04T16:47:34;6.42;;;2.37;;
2884;SDS011;54691;48.262;11.586;2023-06-04T16:54:32;6.10;;;2.60;;
2884;SDS011;54691;48.262;11.586;2023-06-04T17:01:29;8.08;;;2.50;;
2884;SDS011;54691;48.262;11.586;2023-06-04T17:08:26;4.85;;;2.85;;
2884;SDS011;54691;48.262;11.586;2023-06-04T17:15:24;4.65;;;3.22;;
2884;SDS011;54691;48.262;11.586;2023-06-04T17:22:21;6.17;;;3.50;;
2884;SDS011;54691;48.262;11.586;2023-06-04T17:29:18;6.92;;;2.60;;
2884;SDS011;54691;48.262;11.586;2023-06-04T17:36:15;4.87;;;2.72;;
2884;SDS011;54691;48.262;11.586;2023-06-04T17:43:14;4.83;;;2.55;;
2884;SDS011;54691;48.262;11.586;2023-06-04T17:50:13;9.18;;;4.22;;
2884;SDS011;54691;48.262;11.586;2023-06-04T17:57:10;7.62;;;2.77;;
2884;SDS011;54691;48.262;11.586;2023-06-04T18:04:07;8.78;;;2.50;;
2884;SDS011;54691;48.262;11.586;2023-06-04T18:11:04;7.22;;;2.30;;
2884;SDS011;54691;48.262;11.586;2023-06-04T18:18:01;5.78;;;2.85;;
2884;SDS011;54691;48.262;11.586;2023-06-04T18:25:02;5.37;;;2.58;;
2884;SDS011;54691;48.262;11.586;2023-06-04T18:32:01;6.92;;;3.35;;
2884;SDS011;54691;48.262;11.586;2023-06-04T18:39:00;4.33;;;2.52;;
2884;SDS011;54691;48.262;11.586;2023-06-04T18:45:58;13.10;;;3.22;;
2884;SDS011;54691;48.262;11.586;2023-06-04T18:56:36;9.90;;;2.80;;
2884;SDS011;54691;48.262;11.586;2023-06-04T19:03:36;10.85;;;3.83;;
2884;SDS011;54691;48.262;11.586;2023-06-04T19:10:36;4.15;;;2.35;;
2884;SDS011;54691;48.262;11.586;2023-06-04T19:17:34;14.55;;;4.47;;
2884;SDS011;54691;48.262;11.586;2023-06-04T19:24:31;8.95;;;3.72;;
2884;SDS011;54691;48.262;11.586;2023-06-04T19:31:28;9.28;;;3.30;;
2884;SDS011;54691;48.262;11.586;2023-06-04T19:38:25;8.70;;;2.70;;
2884;SDS011;54691;48.262;11.586;2023-06-04T19:45:23;5.78;;;2.60;;
2884;SDS011;54691;48.262;11.586;2023-06-04T19:52:20;7.65;;;3.20;;
2884;SDS011;54691;48.262;11.586;2023-06-04T19:59:17;7.78;;;2.77;;
2884;SDS011;54691;48.262;11.586;2023-06-04T20:06:16;4.80;;;2.80;;
2884;SDS011;54691;48.262;11.586;2023-06-04T20:13:13;8.13;;;3.45;;
2884;SDS011;54691;48.262;11.586;2023-06-04T20:20:11;8.00;;;2.98;;
2884;SDS011;54691;48.262;11.586;2023-06-04T20:27:08;5.97;;;2.90;;
2884;SDS011;54691;48.262;11.586;2023-06-04T20:34:05;14.10;;;3.20;;
2884;SDS011;54691;48.262;11.586;2023-06-04T20:41:06;6.05;;;3.33;;
2884;SDS011;54691;48.262;11.586;2023-06-04T20:48:03;6.47;;;2.90;;
2884;SDS011;54691;48.262;11.586;2023-06-04T20:55:00;6.20;;;2.52;;
2884;SDS011;54691;48.262;11.586;2023-06-04T21:01:58;7.10;;;2.62;;
2884;SDS011;54691;48.262;11.586;2023-06-04T21:08:55;8.13;;;3.37;;
2884;SDS011;54691;48.262;11.586;2023-06-04T21:15:52;4.78;;;2.47;;
2884;SDS011;54691;48.262;11.586;2023-06-04T21:22:49;8.18;;;3.17;;
2884;SDS011;54691;48.262;11.586;2023-06-04T21:29:47;7.35;;;3.08;;
2884;SDS011;54691;48.262;11.586;2023-06-04T21:36:44;4.92;;;2.80;;
2884;SDS011;54691;48.262;11.586;2023-06-04T21:43:41;8.53;;;2.77;;
2884;SDS011;54691;48.262;11.586;2023-06-04T21:50:38;10.45;;;3.40;;
2884;SDS011;54691;48.262;11.586;2023-06-04T21:57:36;9.78;;;3.02;;
2884;SDS011;54691;48.262;11.586;2023-06-04T22:04:33;8.33;;;2.70;;
2884;SDS011;54691;48.262;11.586;2023-06-04T22:11:30;4.92;;;2.60;;
2884;SDS011;54691;48.262;11.586;2023-06-04T22:18:27;4.65;;;2.55;;
2884;SDS011;54691;48.262;11.586;2023-06-04T22:25:24;11.80;;;2.62;;
2884;SDS011;54691;48.262;11.586;2023-06-04T22:32:21;6.22;;;2.83;;
2884;SDS011;54691;48.262;11.586;2023-06-04T22:39:18;4.72;;;2.45;;
2884;SDS011;54691;48.262;11.586;2023-06-04T22:46:15;7.35;;;2.42;;
2884;SDS011;54691;48.262;11.586;2023-06-04T22:53:12;5.75;;;2.65;;
2884;SDS011;54691;48.262;11.586;2023-06-04T23:00:11;9.30;;;2.92;;
2884;SDS011;54691;48.262;11.586;2023-06-04T23:07:08;6.37;;;3.05;;
2884;SDS011;54691;48.262;11.586;2023-06-04T23:14:05;5.65;;;3.17;;
2884;SDS011;54691;48.262;11.586;2023-06-04T23:21:03;6.97;;;2.60;;
2884;SDS011;54691;48.262;11.586;2023-06-04T23:28:00;5.33;;;2.75;;
2884;SDS011;54691;48.262;11.586;2023-06-04T23:34:57;6.50;;;3.12;;
2884;SDS011;54691;48.262;11.586;2023-06-04T23:41:55;5.67;;;3.30;;
2884;SDS011;54691;48.262;11.586;2023-06-04T23:48:52;6.70;;;2.98;;
2884;SDS011;54691;48.262;11.586;2023-06-04T23:55:49;6.35;;;3.35;;
